< < Back
Terminal Aerodrome Forecast


Current Version              Previous Versions:   1  2  3  4  5  6  7  8  9  

Terminal Aerodrome Forecast

053
FTUS42 KTAE 241000 AAB
TAFTLH
TAF AMD
KTLH 241043Z 2411/2506 00000KT 5SM BR SCT080
      TEMPO 2411/2412 1/4SM FG VV002
     FM241300 17007KT P6SM SCT040=

Latest METAR

729
SAUS80 KWBC 241200 RRA
MTRTLH
METAR KTLH 241153Z 00000KT 2 1/2SM BR BKN002 BKN075 18/16 A2998 RMK AO2
SLP151 T01780161 10183 20156 53009


USA.gov is the U.S. government's official web portal to all federal, state and local government web resources and services.